sensor_id;sensor_type;location;lat;lon;timestamp;P1;durP1;ratioP1;P2;durP2;ratioP2
14797;SDS011;7490;63.708;20.368;2023-09-19T00:00:30;1.17;;;0.70;;
14797;SDS011;7490;63.708;20.368;2023-09-19T00:02:57;1.70;;;0.70;;
14797;SDS011;7490;63.708;20.368;2023-09-19T00:05:26;1.27;;;0.73;;
14797;SDS011;7490;63.708;20.368;2023-09-19T00:07:53;1.57;;;0.80;;
14797;SDS011;7490;63.708;20.368;2023-09-19T00:10:21;2.23;;;0.90;;
14797;SDS011;7490;63.708;20.368;2023-09-19T00:12:49;1.10;;;0.80;;
14797;SDS011;7490;63.708;20.368;2023-09-19T00:15:30;1.50;;;0.77;;
14797;SDS011;7490;63.708;20.368;2023-09-19T00:17:58;1.87;;;0.90;;
14797;SDS011;7490;63.708;20.368;2023-09-19T00:20:24;1.67;;;0.73;;
14797;SDS011;7490;63.708;20.368;2023-09-19T00:22:50;1.47;;;0.80;;
14797;SDS011;7490;63.708;20.368;2023-09-19T00:25:19;1.70;;;0.63;;
14797;SDS011;7490;63.708;20.368;2023-09-19T00:27:45;1.47;;;0.70;;
14797;SDS011;7490;63.708;20.368;2023-09-19T00:30:14;1.50;;;0.80;;
14797;SDS011;7490;63.708;20.368;2023-09-19T00:32:49;2.07;;;0.90;;
14797;SDS011;7490;63.708;20.368;2023-09-19T00:35:20;1.80;;;0.80;;
14797;SDS011;7490;63.708;20.368;2023-09-19T00:37:52;0.97;;;0.73;;
14797;SDS011;7490;63.708;20.368;2023-09-19T00:40:18;1.60;;;0.90;;
14797;SDS011;7490;63.708;20.368;2023-09-19T00:42:46;3.03;;;1.10;;
14797;SDS011;7490;63.708;20.368;2023-09-19T00:45:13;1.33;;;0.80;;
14797;SDS011;7490;63.708;20.368;2023-09-19T00:47:42;1.60;;;0.70;;
14797;SDS011;7490;63.708;20.368;2023-09-19T00:50:17;2.30;;;1.23;;
14797;SDS011;7490;63.708;20.368;2023-09-19T00:52:46;1.50;;;0.80;;
14797;SDS011;7490;63.708;20.368;2023-09-19T00:55:12;1.63;;;0.70;;
14797;SDS011;7490;63.708;20.368;2023-09-19T00:57:41;2.27;;;0.80;;
14797;SDS011;7490;63.708;20.368;2023-09-19T01:00:07;0.70;;;0.70;;
14797;SDS011;7490;63.708;20.368;2023-09-19T01:02:40;2.43;;;1.00;;
14797;SDS011;7490;63.708;20.368;2023-09-19T01:05:10;0.97;;;0.70;;
14797;SDS011;7490;63.708;20.368;2023-09-19T01:07:40;1.23;;;0.70;;
14797;SDS011;7490;63.708;20.368;2023-09-19T01:10:07;0.90;;;0.77;;
14797;SDS011;7490;63.708;20.368;2023-09-19T01:18:13;1.00;;;0.70;;
14797;SDS011;7490;63.708;20.368;2023-09-19T01:20:53;1.80;;;0.80;;
14797;SDS011;7490;63.708;20.368;2023-09-19T01:30:13;2.23;;;0.90;;
14797;SDS011;7490;63.708;20.368;2023-09-19T01:32:42;1.57;;;0.90;;
14797;SDS011;7490;63.708;20.368;2023-09-19T01:35:09;0.90;;;0.73;;
14797;SDS011;7490;63.708;20.368;2023-09-19T01:37:38;1.73;;;0.80;;
14797;SDS011;7490;63.708;20.368;2023-09-19T01:40:04;2.73;;;0.80;;
14797;SDS011;7490;63.708;20.368;2023-09-19T01:45:31;3.53;;;1.07;;
14797;SDS011;7490;63.708;20.368;2023-09-19T01:51:05;1.23;;;0.83;;
14797;SDS011;7490;63.708;20.368;2023-09-19T01:56:13;3.70;;;1.10;;
14797;SDS011;7490;63.708;20.368;2023-09-19T01:58:48;1.90;;;0.90;;
14797;SDS011;7490;63.708;20.368;2023-09-19T02:01:16;1.87;;;1.10;;
14797;SDS011;7490;63.708;20.368;2023-09-19T02:03:50;2.67;;;1.03;;
14797;SDS011;7490;63.708;20.368;2023-09-19T02:06:16;1.17;;;0.93;;
14797;SDS011;7490;63.708;20.368;2023-09-19T02:08:43;0.90;;;0.80;;
14797;SDS011;7490;63.708;20.368;2023-09-19T02:11:12;2.83;;;1.17;;
14797;SDS011;7490;63.708;20.368;2023-09-19T02:13:38;2.83;;;1.10;;
14797;SDS011;7490;63.708;20.368;2023-09-19T02:16:06;3.80;;;1.00;;
14797;SDS011;7490;63.708;20.368;2023-09-19T02:18:32;3.57;;;0.90;;
14797;SDS011;7490;63.708;20.368;2023-09-19T02:21:00;3.03;;;1.07;;
14797;SDS011;7490;63.708;20.368;2023-09-19T02:23:26;3.63;;;1.17;;
14797;SDS011;7490;63.708;20.368;2023-09-19T02:25:53;2.17;;;1.03;;
14797;SDS011;7490;63.708;20.368;2023-09-19T02:28:19;1.80;;;0.90;;
14797;SDS011;7490;63.708;20.368;2023-09-19T02:30:47;2.00;;;1.00;;
14797;SDS011;7490;63.708;20.368;2023-09-19T02:33:14;1.67;;;0.90;;
14797;SDS011;7490;63.708;20.368;2023-09-19T02:35:40;2.37;;;0.80;;
14797;SDS011;7490;63.708;20.368;2023-09-19T02:38:05;1.77;;;1.00;;
14797;SDS011;7490;63.708;20.368;2023-09-19T02:40:32;3.20;;;1.27;;
14797;SDS011;7490;63.708;20.368;2023-09-19T02:43:00;3.93;;;1.17;;
14797;SDS011;7490;63.708;20.368;2023-09-19T02:45:26;2.70;;;1.20;;
14797;SDS011;7490;63.708;20.368;2023-09-19T02:47:53;1.97;;;1.00;;
14797;SDS011;7490;63.708;20.368;2023-09-19T02:50:20;2.13;;;1.20;;
14797;SDS011;7490;63.708;20.368;2023-09-19T02:52:45;2.00;;;1.03;;
14797;SDS011;7490;63.708;20.368;2023-09-19T02:55:17;4.23;;;1.20;;
14797;SDS011;7490;63.708;20.368;2023-09-19T02:57:53;3.10;;;1.10;;
14797;SDS011;7490;63.708;20.368;2023-09-19T03:00:22;2.50;;;1.13;;
14797;SDS011;7490;63.708;20.368;2023-09-19T03:02:49;1.63;;;1.20;;
14797;SDS011;7490;63.708;20.368;2023-09-19T03:05:16;2.57;;;1.10;;
14797;SDS011;7490;63.708;20.368;2023-09-19T03:07:43;2.70;;;1.13;;
14797;SDS011;7490;63.708;20.368;2023-09-19T03:10:10;1.53;;;1.03;;
14797;SDS011;7490;63.708;20.368;2023-09-19T03:12:36;1.87;;;1.20;;
14797;SDS011;7490;63.708;20.368;2023-09-19T03:15:03;1.47;;;0.90;;
14797;SDS011;7490;63.708;20.368;2023-09-19T03:17:29;4.13;;;1.23;;
14797;SDS011;7490;63.708;20.368;2023-09-19T03:19:55;1.87;;;1.27;;
14797;SDS011;7490;63.708;20.368;2023-09-19T03:22:22;1.37;;;1.10;;
14797;SDS011;7490;63.708;20.368;2023-09-19T03:24:49;5.03;;;1.17;;
14797;SDS011;7490;63.708;20.368;2023-09-19T03:27:15;3.10;;;1.20;;
14797;SDS011;7490;63.708;20.368;2023-09-19T03:29:42;2.03;;;1.20;;
14797;SDS011;7490;63.708;20.368;2023-09-19T03:32:07;1.60;;;1.20;;
14797;SDS011;7490;63.708;20.368;2023-09-19T03:34:36;2.07;;;0.90;;
14797;SDS011;7490;63.708;20.368;2023-09-19T03:37:05;2.67;;;1.20;;
14797;SDS011;7490;63.708;20.368;2023-09-19T03:39:31;2.90;;;1.10;;
14797;SDS011;7490;63.708;20.368;2023-09-19T03:41:57;4.00;;;1.00;;
14797;SDS011;7490;63.708;20.368;2023-09-19T03:44:23;2.13;;;1.30;;
14797;SDS011;7490;63.708;20.368;2023-09-19T03:46:49;3.73;;;1.00;;
14797;SDS011;7490;63.708;20.368;2023-09-19T03:49:14;2.00;;;1.07;;
14797;SDS011;7490;63.708;20.368;2023-09-19T03:51:40;1.30;;;0.90;;
14797;SDS011;7490;63.708;20.368;2023-09-19T03:54:06;1.20;;;1.00;;
14797;SDS011;7490;63.708;20.368;2023-09-19T03:56:33;1.80;;;1.00;;
14797;SDS011;7490;63.708;20.368;2023-09-19T03:58:58;3.80;;;1.23;;
14797;SDS011;7490;63.708;20.368;2023-09-19T04:01:24;1.87;;;1.10;;
14797;SDS011;7490;63.708;20.368;2023-09-19T04:03:52;3.37;;;1.10;;
14797;SDS011;7490;63.708;20.368;2023-09-19T04:06:18;3.30;;;1.10;;
14797;SDS011;7490;63.708;20.368;2023-09-19T04:08:44;2.47;;;0.97;;
14797;SDS011;7490;63.708;20.368;2023-09-19T04:11:11;3.87;;;1.20;;
14797;SDS011;7490;63.708;20.368;2023-09-19T04:13:37;2.60;;;1.30;;
14797;SDS011;7490;63.708;20.368;2023-09-19T04:16:03;3.00;;;1.10;;
14797;SDS011;7490;63.708;20.368;2023-09-19T04:18:29;2.20;;;0.93;;
14797;SDS011;7490;63.708;20.368;2023-09-19T04:20:57;1.93;;;1.13;;
14797;SDS011;7490;63.708;20.368;2023-09-19T04:23:23;2.80;;;1.20;;
14797;SDS011;7490;63.708;20.368;2023-09-19T04:25:49;2.43;;;1.10;;
14797;SDS011;7490;63.708;20.368;2023-09-19T04:28:15;2.10;;;1.10;;
14797;SDS011;7490;63.708;20.368;2023-09-19T04:30:41;1.93;;;1.27;;
14797;SDS011;7490;63.708;20.368;2023-09-19T04:33:07;2.33;;;1.20;;
14797;SDS011;7490;63.708;20.368;2023-09-19T04:35:33;3.13;;;1.20;;
14797;SDS011;7490;63.708;20.368;2023-09-19T04:37:59;1.80;;;1.00;;
14797;SDS011;7490;63.708;20.368;2023-09-19T04:40:25;1.83;;;1.30;;
14797;SDS011;7490;63.708;20.368;2023-09-19T04:42:57;2.60;;;1.00;;
14797;SDS011;7490;63.708;20.368;2023-09-19T04:45:23;4.10;;;1.20;;
14797;SDS011;7490;63.708;20.368;2023-09-19T04:47:49;1.97;;;1.03;;
14797;SDS011;7490;63.708;20.368;2023-09-19T04:50:15;2.10;;;1.10;;
14797;SDS011;7490;63.708;20.368;2023-09-19T04:52:42;4.20;;;1.33;;
14797;SDS011;7490;63.708;20.368;2023-09-19T04:55:12;2.80;;;1.20;;
14797;SDS011;7490;63.708;20.368;2023-09-19T04:57:45;1.10;;;0.93;;
14797;SDS011;7490;63.708;20.368;2023-09-19T05:00:15;1.27;;;1.10;;
14797;SDS011;7490;63.708;20.368;2023-09-19T05:02:45;1.80;;;0.97;;
14797;SDS011;7490;63.708;20.368;2023-09-19T05:05:11;2.97;;;1.27;;
14797;SDS011;7490;63.708;20.368;2023-09-19T05:07:41;1.63;;;1.00;;
14797;SDS011;7490;63.708;20.368;2023-09-19T05:10:08;2.87;;;1.03;;
14797;SDS011;7490;63.708;20.368;2023-09-19T05:12:35;3.17;;;1.13;;
14797;SDS011;7490;63.708;20.368;2023-09-19T05:15:04;1.80;;;1.20;;
14797;SDS011;7490;63.708;20.368;2023-09-19T05:17:32;3.87;;;1.37;;
14797;SDS011;7490;63.708;20.368;2023-09-19T05:19:58;1.87;;;1.20;;
14797;SDS011;7490;63.708;20.368;2023-09-19T05:22:31;3.40;;;1.23;;
14797;SDS011;7490;63.708;20.368;2023-09-19T05:24:57;3.53;;;1.00;;
14797;SDS011;7490;63.708;20.368;2023-09-19T05:27:24;1.40;;;1.10;;
14797;SDS011;7490;63.708;20.368;2023-09-19T05:29:50;1.27;;;1.10;;
14797;SDS011;7490;63.708;20.368;2023-09-19T05:32:18;2.53;;;1.27;;
14797;SDS011;7490;63.708;20.368;2023-09-19T05:34:44;1.90;;;1.20;;
14797;SDS011;7490;63.708;20.368;2023-09-19T05:37:12;1.93;;;1.20;;
14797;SDS011;7490;63.708;20.368;2023-09-19T05:39:38;4.17;;;1.53;;
14797;SDS011;7490;63.708;20.368;2023-09-19T05:42:04;1.27;;;1.03;;
14797;SDS011;7490;63.708;20.368;2023-09-19T05:44:29;3.33;;;1.10;;
14797;SDS011;7490;63.708;20.368;2023-09-19T05:46:56;1.53;;;1.00;;
14797;SDS011;7490;63.708;20.368;2023-09-19T05:49:22;1.97;;;1.30;;
14797;SDS011;7490;63.708;20.368;2023-09-19T05:51:49;2.37;;;1.23;;
14797;SDS011;7490;63.708;20.368;2023-09-19T05:54:18;2.07;;;1.23;;
14797;SDS011;7490;63.708;20.368;2023-09-19T05:56:45;2.50;;;1.30;;
14797;SDS011;7490;63.708;20.368;2023-09-19T05:59:12;3.53;;;1.40;;
14797;SDS011;7490;63.708;20.368;2023-09-19T06:01:40;1.47;;;1.07;;
14797;SDS011;7490;63.708;20.368;2023-09-19T06:04:09;1.53;;;1.20;;
14797;SDS011;7490;63.708;20.368;2023-09-19T06:06:34;1.53;;;1.20;;
14797;SDS011;7490;63.708;20.368;2023-09-19T06:09:04;1.47;;;1.37;;
14797;SDS011;7490;63.708;20.368;2023-09-19T06:11:34;2.70;;;1.30;;
14797;SDS011;7490;63.708;20.368;2023-09-19T06:14:01;1.13;;;1.03;;
14797;SDS011;7490;63.708;20.368;2023-09-19T06:16:27;2.33;;;1.20;;
14797;SDS011;7490;63.708;20.368;2023-09-19T06:18:54;2.40;;;1.20;;
14797;SDS011;7490;63.708;20.368;2023-09-19T06:21:21;3.43;;;1.13;;
14797;SDS011;7490;63.708;20.368;2023-09-19T06:23:47;3.03;;;1.40;;
14797;SDS011;7490;63.708;20.368;2023-09-19T06:26:13;1.73;;;1.30;;
14797;SDS011;7490;63.708;20.368;2023-09-19T06:28:39;1.73;;;1.27;;
14797;SDS011;7490;63.708;20.368;2023-09-19T06:31:06;2.23;;;1.13;;
14797;SDS011;7490;63.708;20.368;2023-09-19T06:33:35;2.40;;;1.10;;
14797;SDS011;7490;63.708;20.368;2023-09-19T06:36:03;2.73;;;1.20;;
14797;SDS011;7490;63.708;20.368;2023-09-19T06:38:30;2.83;;;0.90;;
14797;SDS011;7490;63.708;20.368;2023-09-19T06:40:56;3.30;;;1.03;;
14797;SDS011;7490;63.708;20.368;2023-09-19T06:43:23;2.33;;;1.10;;
14797;SDS011;7490;63.708;20.368;2023-09-19T06:45:49;1.30;;;1.17;;
14797;SDS011;7490;63.708;20.368;2023-09-19T06:48:16;3.60;;;1.40;;
14797;SDS011;7490;63.708;20.368;2023-09-19T06:50:43;7.77;;;1.83;;
14797;SDS011;7490;63.708;20.368;2023-09-19T06:53:09;5.97;;;1.50;;
14797;SDS011;7490;63.708;20.368;2023-09-19T06:55:35;9.30;;;2.00;;
14797;SDS011;7490;63.708;20.368;2023-09-19T06:58:01;3.47;;;1.40;;
14797;SDS011;7490;63.708;20.368;2023-09-19T07:00:27;3.17;;;1.10;;
14797;SDS011;7490;63.708;20.368;2023-09-19T07:02:59;2.90;;;1.20;;
14797;SDS011;7490;63.708;20.368;2023-09-19T07:05:29;3.30;;;1.07;;
14797;SDS011;7490;63.708;20.368;2023-09-19T07:07:56;1.97;;;1.20;;
14797;SDS011;7490;63.708;20.368;2023-09-19T07:10:25;1.53;;;1.40;;
14797;SDS011;7490;63.708;20.368;2023-09-19T07:13:02;1.17;;;1.00;;
14797;SDS011;7490;63.708;20.368;2023-09-19T07:15:31;1.20;;;1.10;;
14797;SDS011;7490;63.708;20.368;2023-09-19T07:18:02;3.47;;;1.20;;
14797;SDS011;7490;63.708;20.368;2023-09-19T07:20:28;1.20;;;1.10;;
14797;SDS011;7490;63.708;20.368;2023-09-19T07:22:56;1.60;;;1.20;;
14797;SDS011;7490;63.708;20.368;2023-09-19T07:25:25;3.50;;;1.33;;
14797;SDS011;7490;63.708;20.368;2023-09-19T07:27:51;1.73;;;1.20;;
14797;SDS011;7490;63.708;20.368;2023-09-19T07:30:17;6.90;;;1.50;;
14797;SDS011;7490;63.708;20.368;2023-09-19T07:32:43;4.73;;;1.20;;
14797;SDS011;7490;63.708;20.368;2023-09-19T07:35:09;1.30;;;1.10;;
14797;SDS011;7490;63.708;20.368;2023-09-19T07:37:34;4.40;;;1.60;;
14797;SDS011;7490;63.708;20.368;2023-09-19T07:40:01;1.57;;;1.17;;
14797;SDS011;7490;63.708;20.368;2023-09-19T07:42:32;2.43;;;1.30;;
14797;SDS011;7490;63.708;20.368;2023-09-19T07:45:00;1.80;;;1.27;;
14797;SDS011;7490;63.708;20.368;2023-09-19T07:47:26;3.33;;;1.00;;
14797;SDS011;7490;63.708;20.368;2023-09-19T07:49:52;2.23;;;1.03;;
14797;SDS011;7490;63.708;20.368;2023-09-19T07:52:18;1.57;;;1.20;;
14797;SDS011;7490;63.708;20.368;2023-09-19T07:54:44;1.63;;;1.30;;
14797;SDS011;7490;63.708;20.368;2023-09-19T07:57:10;3.97;;;1.30;;
14797;SDS011;7490;63.708;20.368;2023-09-19T07:59:37;2.00;;;1.40;;
14797;SDS011;7490;63.708;20.368;2023-09-19T08:02:04;2.23;;;1.40;;
14797;SDS011;7490;63.708;20.368;2023-09-19T08:04:30;2.87;;;1.40;;
14797;SDS011;7490;63.708;20.368;2023-09-19T08:06:58;2.80;;;1.70;;
14797;SDS011;7490;63.708;20.368;2023-09-19T08:09:25;4.47;;;1.80;;
14797;SDS011;7490;63.708;20.368;2023-09-19T08:11:52;2.67;;;1.70;;
14797;SDS011;7490;63.708;20.368;2023-09-19T08:14:18;3.20;;;1.67;;
14797;SDS011;7490;63.708;20.368;2023-09-19T08:16:44;3.90;;;1.57;;
14797;SDS011;7490;63.708;20.368;2023-09-19T08:19:10;1.77;;;1.67;;
14797;SDS011;7490;63.708;20.368;2023-09-19T08:21:36;2.40;;;1.70;;
14797;SDS011;7490;63.708;20.368;2023-09-19T08:24:02;5.03;;;2.10;;
14797;SDS011;7490;63.708;20.368;2023-09-19T08:26:29;1.80;;;1.57;;
14797;SDS011;7490;63.708;20.368;2023-09-19T08:28:55;2.80;;;1.93;;
14797;SDS011;7490;63.708;20.368;2023-09-19T08:31:21;2.60;;;1.90;;
14797;SDS011;7490;63.708;20.368;2023-09-19T08:33:48;3.43;;;2.00;;
14797;SDS011;7490;63.708;20.368;2023-09-19T08:36:15;5.60;;;2.37;;
14797;SDS011;7490;63.708;20.368;2023-09-19T08:38:40;3.47;;;2.50;;
14797;SDS011;7490;63.708;20.368;2023-09-19T08:41:06;4.53;;;2.27;;
14797;SDS011;7490;63.708;20.368;2023-09-19T08:43:33;2.60;;;2.20;;
14797;SDS011;7490;63.708;20.368;2023-09-19T08:46:03;3.97;;;2.60;;
14797;SDS011;7490;63.708;20.368;2023-09-19T08:48:31;3.17;;;2.73;;
14797;SDS011;7490;63.708;20.368;2023-09-19T08:51:07;3.13;;;2.40;;
14797;SDS011;7490;63.708;20.368;2023-09-19T08:53:54;5.07;;;2.80;;
14797;SDS011;7490;63.708;20.368;2023-09-19T08:56:34;5.33;;;3.00;;
14797;SDS011;7490;63.708;20.368;2023-09-19T08:59:04;4.37;;;3.30;;
14797;SDS011;7490;63.708;20.368;2023-09-19T09:01:34;6.23;;;3.10;;
14797;SDS011;7490;63.708;20.368;2023-09-19T09:04:01;3.53;;;2.87;;
14797;SDS011;7490;63.708;20.368;2023-09-19T09:06:27;5.60;;;3.27;;
14797;SDS011;7490;63.708;20.368;2023-09-19T09:08:54;5.53;;;3.80;;
14797;SDS011;7490;63.708;20.368;2023-09-19T09:11:21;5.17;;;3.63;;
14797;SDS011;7490;63.708;20.368;2023-09-19T09:13:49;4.50;;;3.87;;
14797;SDS011;7490;63.708;20.368;2023-09-19T09:16:15;6.23;;;3.87;;
14797;SDS011;7490;63.708;20.368;2023-09-19T09:18:44;8.00;;;4.83;;
14797;SDS011;7490;63.708;20.368;2023-09-19T09:21:10;5.80;;;4.57;;
14797;SDS011;7490;63.708;20.368;2023-09-19T09:23:37;6.10;;;4.30;;
14797;SDS011;7490;63.708;20.368;2023-09-19T09:26:03;6.73;;;4.93;;
14797;SDS011;7490;63.708;20.368;2023-09-19T09:28:31;7.60;;;4.80;;
14797;SDS011;7490;63.708;20.368;2023-09-19T09:30:58;7.00;;;4.50;;
14797;SDS011;7490;63.708;20.368;2023-09-19T09:33:28;5.27;;;4.53;;
14797;SDS011;7490;63.708;20.368;2023-09-19T09:35:55;7.80;;;5.13;;
14797;SDS011;7490;63.708;20.368;2023-09-19T09:38:47;6.63;;;4.77;;
14797;SDS011;7490;63.708;20.368;2023-09-19T09:41:20;8.40;;;5.07;;
14797;SDS011;7490;63.708;20.368;2023-09-19T09:44:12;7.30;;;4.63;;
14797;SDS011;7490;63.708;20.368;2023-09-19T09:46:42;8.27;;;4.97;;
14797;SDS011;7490;63.708;20.368;2023-09-19T09:49:18;8.17;;;5.17;;
14797;SDS011;7490;63.708;20.368;2023-09-19T09:54:32;10.10;;;5.40;;
14797;SDS011;7490;63.708;20.368;2023-09-19T09:57:08;7.87;;;4.87;;
14797;SDS011;7490;63.708;20.368;2023-09-19T09:59:54;7.53;;;5.10;;
14797;SDS011;7490;63.708;20.368;2023-09-19T10:02:40;9.20;;;5.90;;
14797;SDS011;7490;63.708;20.368;2023-09-19T10:05:20;8.10;;;5.97;;
14797;SDS011;7490;63.708;20.368;2023-09-19T10:07:51;10.73;;;6.00;;
14797;SDS011;7490;63.708;20.368;2023-09-19T10:13:11;11.20;;;6.87;;
14797;SDS011;7490;63.708;20.368;2023-09-19T10:15:46;9.70;;;7.23;;
14797;SDS011;7490;63.708;20.368;2023-09-19T10:18:34;13.83;;;7.77;;
14797;SDS011;7490;63.708;20.368;2023-09-19T10:21:03;13.27;;;7.60;;
14797;SDS011;7490;63.708;20.368;2023-09-19T10:23:31;11.17;;;7.53;;
14797;SDS011;7490;63.708;20.368;2023-09-19T10:25:59;15.17;;;8.50;;
14797;SDS011;7490;63.708;20.368;2023-09-19T10:28:27;12.13;;;7.40;;
14797;SDS011;7490;63.708;20.368;2023-09-19T10:30:55;17.67;;;8.57;;
14797;SDS011;7490;63.708;20.368;2023-09-19T10:33:24;17.60;;;8.97;;
14797;SDS011;7490;63.708;20.368;2023-09-19T10:35:55;17.13;;;9.03;;
14797;SDS011;7490;63.708;20.368;2023-09-19T10:38:25;17.77;;;9.43;;
14797;SDS011;7490;63.708;20.368;2023-09-19T10:40:54;14.93;;;9.57;;
14797;SDS011;7490;63.708;20.368;2023-09-19T10:43:31;21.07;;;9.73;;
14797;SDS011;7490;63.708;20.368;2023-09-19T10:46:00;16.20;;;9.07;;
14797;SDS011;7490;63.708;20.368;2023-09-19T10:48:29;16.93;;;9.87;;
14797;SDS011;7490;63.708;20.368;2023-09-19T10:54:04;23.87;;;11.60;;
14797;SDS011;7490;63.708;20.368;2023-09-19T10:56:38;19.77;;;11.10;;
14797;SDS011;7490;63.708;20.368;2023-09-19T10:59:14;26.30;;;13.70;;
14797;SDS011;7490;63.708;20.368;2023-09-19T11:01:48;21.47;;;12.23;;
14797;SDS011;7490;63.708;20.368;2023-09-19T11:04:31;26.50;;;13.40;;
14797;SDS011;7490;63.708;20.368;2023-09-19T11:09:54;33.33;;;15.63;;
14797;SDS011;7490;63.708;20.368;2023-09-19T11:15:03;34.60;;;15.30;;
14797;SDS011;7490;63.708;20.368;2023-09-19T11:30:46;38.00;;;17.67;;
14797;SDS011;7490;63.708;20.368;2023-09-19T11:49:17;30.90;;;17.37;;
14797;SDS011;7490;63.708;20.368;2023-09-19T11:51:50;29.33;;;18.10;;
14797;SDS011;7490;63.708;20.368;2023-09-19T11:54:19;35.80;;;19.47;;
14797;SDS011;7490;63.708;20.368;2023-09-19T11:56:52;29.80;;;17.80;;
14797;SDS011;7490;63.708;20.368;2023-09-19T11:59:29;36.03;;;20.10;;
14797;SDS011;7490;63.708;20.368;2023-09-19T12:04:41;32.73;;;20.23;;
14797;SDS011;7490;63.708;20.368;2023-09-19T12:07:16;36.20;;;21.13;;
14797;SDS011;7490;63.708;20.368;2023-09-19T12:09:45;43.43;;;22.30;;
14797;SDS011;7490;63.708;20.368;2023-09-19T12:12:22;42.13;;;21.83;;
14797;SDS011;7490;63.708;20.368;2023-09-19T12:14:53;51.73;;;22.57;;
14797;SDS011;7490;63.708;20.368;2023-09-19T12:17:19;48.67;;;23.37;;
14797;SDS011;7490;63.708;20.368;2023-09-19T12:19:52;41.97;;;22.20;;
14797;SDS011;7490;63.708;20.368;2023-09-19T12:22:19;44.37;;;23.20;;
14797;SDS011;7490;63.708;20.368;2023-09-19T12:24:47;35.60;;;22.27;;
14797;SDS011;7490;63.708;20.368;2023-09-19T12:27:13;36.67;;;22.00;;
14797;SDS011;7490;63.708;20.368;2023-09-19T12:29:46;37.30;;;22.00;;
14797;SDS011;7490;63.708;20.368;2023-09-19T12:32:19;38.00;;;21.63;;
14797;SDS011;7490;63.708;20.368;2023-09-19T12:35:05;36.27;;;20.93;;
14797;SDS011;7490;63.708;20.368;2023-09-19T12:37:42;42.57;;;23.47;;
14797;SDS011;7490;63.708;20.368;2023-09-19T12:40:18;36.03;;;22.07;;
14797;SDS011;7490;63.708;20.368;2023-09-19T12:42:53;29.83;;;19.80;;
14797;SDS011;7490;63.708;20.368;2023-09-19T12:45:29;37.97;;;23.43;;
14797;SDS011;7490;63.708;20.368;2023-09-19T12:51:00;34.00;;;21.00;;
14797;SDS011;7490;63.708;20.368;2023-09-19T12:53:30;34.83;;;21.83;;
14797;SDS011;7490;63.708;20.368;2023-09-19T12:56:15;30.07;;;20.17;;
14797;SDS011;7490;63.708;20.368;2023-09-19T12:58:52;41.77;;;22.03;;
14797;SDS011;7490;63.708;20.368;2023-09-19T13:01:23;37.03;;;21.50;;
14797;SDS011;7490;63.708;20.368;2023-09-19T13:04:11;41.40;;;22.53;;
14797;SDS011;7490;63.708;20.368;2023-09-19T13:06:47;36.47;;;21.67;;
14797;SDS011;7490;63.708;20.368;2023-09-19T13:09:14;39.40;;;22.07;;
14797;SDS011;7490;63.708;20.368;2023-09-19T13:11:45;45.50;;;22.73;;
14797;SDS011;7490;63.708;20.368;2023-09-19T13:14:20;44.90;;;22.90;;
14797;SDS011;7490;63.708;20.368;2023-09-19T13:19:37;42.93;;;22.97;;
14797;SDS011;7490;63.708;20.368;2023-09-19T13:22:04;41.10;;;21.80;;
14797;SDS011;7490;63.708;20.368;2023-09-19T13:24:49;49.47;;;23.50;;
14797;SDS011;7490;63.708;20.368;2023-09-19T13:27:16;43.87;;;22.63;;
14797;SDS011;7490;63.708;20.368;2023-09-19T13:29:42;43.33;;;21.80;;
14797;SDS011;7490;63.708;20.368;2023-09-19T13:32:07;48.87;;;22.07;;
14797;SDS011;7490;63.708;20.368;2023-09-19T13:34:36;48.27;;;20.97;;
14797;SDS011;7490;63.708;20.368;2023-09-19T13:37:02;42.97;;;20.33;;
14797;SDS011;7490;63.708;20.368;2023-09-19T13:39:29;40.53;;;18.97;;
14797;SDS011;7490;63.708;20.368;2023-09-19T13:41:55;47.90;;;19.87;;
14797;SDS011;7490;63.708;20.368;2023-09-19T13:44:21;43.47;;;20.47;;
14797;SDS011;7490;63.708;20.368;2023-09-19T13:46:48;58.80;;;23.40;;
14797;SDS011;7490;63.708;20.368;2023-09-19T13:49:13;43.87;;;21.37;;
14797;SDS011;7490;63.708;20.368;2023-09-19T13:51:40;43.13;;;20.43;;
14797;SDS011;7490;63.708;20.368;2023-09-19T13:54:08;48.27;;;21.27;;
14797;SDS011;7490;63.708;20.368;2023-09-19T13:56:34;51.40;;;22.60;;
14797;SDS011;7490;63.708;20.368;2023-09-19T13:59:01;44.37;;;20.53;;
14797;SDS011;7490;63.708;20.368;2023-09-19T14:01:27;47.83;;;21.07;;
14797;SDS011;7490;63.708;20.368;2023-09-19T14:03:53;48.17;;;20.87;;
14797;SDS011;7490;63.708;20.368;2023-09-19T14:06:22;44.20;;;21.13;;
14797;SDS011;7490;63.708;20.368;2023-09-19T14:08:47;42.13;;;20.80;;
14797;SDS011;7490;63.708;20.368;2023-09-19T14:11:15;42.20;;;20.17;;
14797;SDS011;7490;63.708;20.368;2023-09-19T14:13:41;38.03;;;19.50;;
14797;SDS011;7490;63.708;20.368;2023-09-19T14:16:11;46.17;;;21.17;;
14797;SDS011;7490;63.708;20.368;2023-09-19T14:18:37;34.03;;;19.20;;
14797;SDS011;7490;63.708;20.368;2023-09-19T14:21:05;44.40;;;19.73;;
14797;SDS011;7490;63.708;20.368;2023-09-19T14:23:34;43.03;;;20.37;;
14797;SDS011;7490;63.708;20.368;2023-09-19T14:26:01;43.80;;;19.83;;
14797;SDS011;7490;63.708;20.368;2023-09-19T14:28:27;38.23;;;19.20;;
14797;SDS011;7490;63.708;20.368;2023-09-19T14:30:54;40.77;;;19.20;;
14797;SDS011;7490;63.708;20.368;2023-09-19T14:33:20;39.80;;;19.73;;
14797;SDS011;7490;63.708;20.368;2023-09-19T14:35:46;40.83;;;18.83;;
14797;SDS011;7490;63.708;20.368;2023-09-19T14:38:11;37.37;;;17.53;;
14797;SDS011;7490;63.708;20.368;2023-09-19T14:40:37;43.07;;;19.53;;
14797;SDS011;7490;63.708;20.368;2023-09-19T14:43:04;39.97;;;18.30;;
14797;SDS011;7490;63.708;20.368;2023-09-19T14:45:30;39.23;;;18.27;;
14797;SDS011;7490;63.708;20.368;2023-09-19T14:47:56;37.63;;;18.97;;
14797;SDS011;7490;63.708;20.368;2023-09-19T14:50:22;38.70;;;18.17;;
14797;SDS011;7490;63.708;20.368;2023-09-19T14:52:47;39.83;;;18.77;;
14797;SDS011;7490;63.708;20.368;2023-09-19T14:55:16;38.30;;;19.23;;
14797;SDS011;7490;63.708;20.368;2023-09-19T14:57:42;36.33;;;17.90;;
14797;SDS011;7490;63.708;20.368;2023-09-19T15:00:11;45.53;;;21.00;;
14797;SDS011;7490;63.708;20.368;2023-09-19T15:02:38;43.27;;;19.97;;
14797;SDS011;7490;63.708;20.368;2023-09-19T15:05:07;51.30;;;20.57;;
14797;SDS011;7490;63.708;20.368;2023-09-19T15:07:34;36.70;;;19.23;;
14797;SDS011;7490;63.708;20.368;2023-09-19T15:10:02;49.27;;;20.57;;
14797;SDS011;7490;63.708;20.368;2023-09-19T15:12:28;42.33;;;18.43;;
14797;SDS011;7490;63.708;20.368;2023-09-19T15:14:54;43.97;;;20.63;;
14797;SDS011;7490;63.708;20.368;2023-09-19T15:17:19;39.33;;;17.67;;
14797;SDS011;7490;63.708;20.368;2023-09-19T15:19:45;38.77;;;19.07;;
14797;SDS011;7490;63.708;20.368;2023-09-19T15:22:11;35.37;;;17.17;;
14797;SDS011;7490;63.708;20.368;2023-09-19T15:24:37;46.40;;;20.63;;
14797;SDS011;7490;63.708;20.368;2023-09-19T15:27:03;55.17;;;20.93;;
14797;SDS011;7490;63.708;20.368;2023-09-19T15:29:29;40.53;;;20.50;;
14797;SDS011;7490;63.708;20.368;2023-09-19T15:31:55;53.40;;;22.10;;
14797;SDS011;7490;63.708;20.368;2023-09-19T15:34:23;59.23;;;24.03;;
14797;SDS011;7490;63.708;20.368;2023-09-19T15:36:50;61.87;;;24.43;;
14797;SDS011;7490;63.708;20.368;2023-09-19T15:39:16;59.70;;;24.40;;
14797;SDS011;7490;63.708;20.368;2023-09-19T15:41:44;56.47;;;23.73;;
14797;SDS011;7490;63.708;20.368;2023-09-19T15:44:12;67.50;;;26.70;;
14797;SDS011;7490;63.708;20.368;2023-09-19T15:46:42;59.07;;;25.60;;
14797;SDS011;7490;63.708;20.368;2023-09-19T15:49:09;62.93;;;25.07;;
14797;SDS011;7490;63.708;20.368;2023-09-19T15:51:35;67.37;;;24.60;;
14797;SDS011;7490;63.708;20.368;2023-09-19T15:54:01;77.37;;;28.80;;
14797;SDS011;7490;63.708;20.368;2023-09-19T15:56:33;74.03;;;28.90;;
14797;SDS011;7490;63.708;20.368;2023-09-19T15:59:00;80.90;;;29.57;;